createdAt,value
2018-05-10T00:00:03.316Z,59.19
2018-05-10T00:03:10.195Z,59.13
2018-05-10T00:06:17.238Z,59.26
2018-05-10T00:09:23.372Z,59.50
2018-05-10T00:12:29.088Z,59.29
2018-05-10T00:15:34.926Z,59.45
2018-05-10T00:18:41.251Z,59.46
2018-05-10T00:21:47.490Z,59.39
2018-05-10T00:24:53.653Z,59.58
2018-05-10T00:27:59.305Z,59.57
2018-05-10T00:31:05.124Z,59.50
2018-05-10T00:34:10.311Z,59.63
2018-05-10T00:37:15.527Z,59.70
2018-05-10T00:40:21.393Z,59.48
2018-05-10T00:43:27.256Z,59.59
2018-05-10T00:46:34.079Z,59.44
2018-05-10T00:49:40.242Z,59.52
2018-05-10T00:52:44.950Z,59.50
2018-05-10T00:55:50.209Z,59.39
2018-05-10T00:58:55.925Z,59.52
2018-05-10T01:02:01.146Z,59.46
2018-05-10T01:05:06.063Z,59.34
2018-05-10T01:08:11.834Z,59.72
2018-05-10T01:11:17.674Z,59.82
2018-05-10T01:14:22.891Z,59.63
2018-05-10T01:17:27.826Z,59.77
2018-05-10T01:20:33.173Z,59.86
2018-05-10T01:23:39.091Z,60.23
2018-05-10T01:26:44.314Z,60.27
2018-05-10T01:29:49.545Z,60.32
2018-05-10T01:32:55.577Z,60.35
2018-05-10T01:36:13.612Z,60.20
2018-05-10T01:39:20.556Z,60.20
2018-05-10T01:42:27.355Z,60.36
2018-05-10T01:45:34.492Z,60.58
2018-05-10T01:48:40.621Z,60.55
2018-05-10T01:51:46.740Z,60.50
2018-05-10T01:54:52.344Z,60.67
2018-05-10T01:57:58.499Z,60.72
2018-05-10T02:01:04.388Z,60.54
2018-05-10T02:04:10.194Z,60.55
2018-05-10T02:07:15.089Z,60.69
2018-05-10T02:10:20.767Z,60.58
2018-05-10T02:13:26.760Z,60.66
2018-05-10T02:16:33.830Z,60.58
2018-05-10T02:19:39.984Z,60.67
2018-05-10T02:22:46.111Z,60.72
2018-05-10T02:25:51.320Z,61.20
2018-05-10T02:28:56.633Z,61.05
2018-05-10T02:32:02.736Z,61.03
2018-05-10T02:35:09.571Z,60.81
2018-05-10T02:38:14.791Z,60.88
2018-05-10T02:41:21.100Z,60.96
2018-05-10T02:44:27.005Z,60.87
2018-05-10T02:47:31.950Z,60.88
2018-05-10T02:50:38.013Z,61.00
2018-05-10T02:53:44.964Z,61.15
2018-05-10T02:56:50.781Z,61.23
2018-05-10T02:59:56.941Z,61.33
2018-05-10T03:03:02.139Z,61.90
2018-05-10T03:06:08.041Z,62.08
2018-05-10T03:09:13.452Z,61.69
2018-05-10T03:12:18.761Z,61.68
2018-05-10T03:15:23.823Z,61.47
2018-05-10T03:18:29.967Z,61.53
2018-05-10T03:21:37.050Z,61.42
2018-05-10T03:24:42.880Z,61.51
2018-05-10T03:27:48.493Z,61.62
2018-05-10T03:30:53.717Z,61.46
2018-05-10T03:33:58.576Z,61.57
2018-05-10T03:37:04.201Z,61.72
2018-05-10T03:40:10.355Z,61.72
2018-05-10T03:43:15.569Z,61.69
2018-05-10T03:46:21.699Z,61.65
2018-05-10T03:49:27.710Z,61.76
2018-05-10T03:52:32.924Z,61.49
2018-05-10T03:55:39.559Z,61.63
2018-05-10T03:58:45.478Z,61.76
2018-05-10T04:01:51.393Z,61.92
2018-05-10T04:05:09.540Z,61.76
2018-05-10T04:08:26.271Z,62.16
2018-05-10T04:11:31.988Z,62.21
2018-05-10T04:14:38.008Z,62.46
2018-05-10T04:17:44.162Z,62.36
2018-05-10T04:20:49.393Z,62.12
2018-05-10T04:23:55.527Z,62.13
2018-05-10T04:27:00.759Z,62.12
2018-05-10T04:30:05.656Z,62.10
2018-05-10T04:33:12.684Z,62.17
2018-05-10T04:36:18.569Z,62.21
2018-05-10T04:39:23.753Z,62.30
2018-05-10T04:42:30.808Z,62.30
2018-05-10T04:45:36.652Z,62.03
2018-05-10T04:48:41.580Z,62.40
2018-05-10T04:51:47.048Z,62.40
2018-05-10T04:54:52.260Z,62.35
2018-05-10T04:57:58.477Z,62.37
2018-05-10T05:01:05.500Z,62.67
2018-05-10T05:04:11.629Z,62.64
2018-05-10T05:07:17.523Z,62.54
2018-05-10T05:10:22.732Z,62.69
2018-05-10T05:13:29.068Z,62.68
2018-05-10T05:16:36.116Z,62.62
2018-05-10T05:19:41.740Z,62.50
2018-05-10T05:22:46.949Z,62.62
2018-05-10T05:25:52.147Z,62.75
2018-05-10T05:28:58.291Z,62.73
2018-05-10T05:32:04.326Z,62.88
2018-05-10T05:35:11.334Z,62.90
2018-05-10T05:38:16.960Z,63.16
2018-05-10T05:41:24.020Z,63.33
2018-05-10T05:44:30.088Z,63.35
2018-05-10T05:47:36.029Z,63.29
2018-05-10T05:50:42.140Z,63.43
2018-05-10T05:53:48.382Z,63.51
2018-05-10T05:56:54.209Z,63.51
2018-05-10T06:00:00.313Z,63.82
2018-05-10T06:03:05.459Z,63.82
2018-05-10T06:06:11.172Z,64.20
2018-05-10T06:09:17.304Z,64.37
2018-05-10T06:12:24.348Z,64.40
2018-05-10T06:15:30.561Z,64.50
2018-05-10T06:18:36.597Z,64.92
2018-05-10T06:21:42.504Z,65.07
2018-05-10T06:24:48.645Z,64.60
2018-05-10T06:27:54.923Z,64.65
2018-05-10T06:31:01.068Z,64.70
2018-05-10T06:34:06.972Z,64.88
2018-05-10T06:37:13.251Z,64.79
2018-05-10T06:40:18.856Z,64.79
2018-05-10T06:43:24.793Z,64.34
2018-05-10T06:46:30.708Z,64.39
2018-05-10T06:49:35.914Z,64.66
2018-05-10T06:52:41.121Z,64.51
2018-05-10T06:55:46.321Z,64.69
2018-05-10T06:58:53.383Z,64.89
2018-05-10T07:02:00.409Z,64.66
2018-05-10T07:05:07.524Z,65.29
2018-05-10T07:08:14.576Z,64.82
2018-05-10T07:11:20.704Z,64.69
2018-05-10T07:14:26.661Z,64.61
2018-05-10T07:17:31.636Z,64.66
2018-05-10T07:20:36.859Z,64.58
2018-05-10T07:23:42.959Z,64.56
2018-05-10T07:26:48.584Z,64.49
2018-05-10T07:29:54.841Z,64.48
2018-05-10T07:33:00.774Z,64.79
2018-05-10T07:36:07.870Z,64.74
2018-05-10T07:39:14.962Z,64.33
2018-05-10T07:42:21.077Z,64.29
2018-05-10T07:45:27.002Z,64.17
2018-05-10T07:48:32.232Z,64.17
2018-05-10T07:51:37.465Z,64.36
2018-05-10T07:54:43.585Z,64.29
2018-05-10T07:57:49.752Z,64.23
2018-05-10T08:00:54.974Z,64.50
2018-05-10T08:04:00.403Z,64.25
2018-05-10T08:07:05.553Z,64.33
2018-05-10T08:10:10.837Z,64.56
2018-05-10T08:13:16.186Z,64.69
2018-05-10T08:16:22.101Z,64.40
2018-05-10T08:19:27.332Z,64.53
2018-05-10T08:22:32.536Z,64.34
2018-05-10T08:25:37.460Z,64.87
2018-05-10T08:28:42.384Z,64.67
2018-05-10T08:31:47.332Z,65.04
2018-05-10T08:34:53.076Z,64.52
2018-05-10T08:37:59.196Z,64.61
2018-05-10T08:41:05.092Z,64.44
2018-05-10T08:44:10.300Z,64.25
2018-05-10T08:47:15.514Z,64.15
2018-05-10T08:50:20.721Z,64.11
2018-05-10T08:53:27.801Z,64.27
2018-05-10T08:56:34.848Z,64.26
2018-05-10T08:59:41.855Z,63.97
2018-05-10T09:02:48.905Z,64.29
2018-05-10T09:05:55.041Z,64.01
2018-05-10T09:09:01.106Z,63.86
2018-05-10T09:12:06.962Z,63.75
2018-05-10T09:15:14.114Z,63.72
2018-05-10T09:18:20.269Z,63.58
2018-05-10T09:21:26.405Z,63.54
2018-05-10T09:24:32.760Z,63.28
2018-05-10T09:27:38.344Z,63.58
2018-05-10T09:30:43.556Z,63.41
2018-05-10T09:33:50.348Z,63.19
2018-05-10T09:36:56.310Z,63.15
2018-05-10T09:40:01.521Z,63.04
2018-05-10T09:43:06.850Z,62.97
2018-05-10T09:46:13.029Z,63.08
2018-05-10T09:49:19.113Z,63.05
2018-05-10T09:52:25.387Z,63.14
2018-05-10T09:55:30.981Z,63.15
2018-05-10T09:58:36.205Z,62.91
2018-05-10T10:01:43.234Z,62.81
2018-05-10T10:04:49.354Z,62.69
2018-05-10T10:07:55.468Z,62.61
2018-05-10T10:11:02.509Z,62.66
2018-05-10T10:14:08.640Z,62.43
2018-05-10T10:17:14.778Z,62.41
2018-05-10T10:20:21.757Z,62.21
2018-05-10T10:23:27.933Z,62.13
2018-05-10T10:26:34.958Z,62.22
2018-05-10T10:29:41.108Z,61.96
2018-05-10T10:32:46.308Z,61.94
2018-05-10T10:35:51.561Z,61.85
2018-05-10T10:38:57.532Z,61.72
2018-05-10T10:42:03.454Z,61.79
2018-05-10T10:45:09.619Z,61.64
2018-05-10T10:48:15.760Z,61.62
2018-05-10T10:51:21.000Z,61.54
2018-05-10T10:54:27.115Z,61.51
2018-05-10T10:57:32.732Z,61.51
2018-05-10T11:00:38.861Z,61.41
2018-05-10T11:03:44.776Z,61.33
2018-05-10T11:06:50.007Z,61.26
2018-05-10T11:09:55.401Z,61.15
2018-05-10T11:13:02.031Z,61.11
2018-05-10T11:16:08.273Z,60.84
2018-05-10T11:19:15.133Z,60.74
2018-05-10T11:22:22.208Z,60.69
2018-05-10T11:25:28.360Z,60.59
2018-05-10T11:28:34.494Z,60.54
2018-05-10T11:31:39.708Z,60.55
2018-05-10T11:34:46.751Z,60.45
2018-05-10T11:37:52.892Z,60.29
2018-05-10T11:40:59.036Z,60.21
2018-05-10T11:44:04.244Z,60.18
2018-05-10T11:47:09.452Z,60.30
2018-05-10T11:50:14.656Z,60.29
2018-05-10T11:53:19.861Z,60.25
2018-05-10T11:56:25.486Z,60.13
2018-05-10T11:59:30.709Z,59.90
2018-05-10T12:02:35.946Z,59.63
2018-05-10T12:05:41.349Z,59.65
2018-05-10T12:08:46.561Z,59.53
2018-05-10T12:11:51.768Z,59.48
2018-05-10T12:14:56.990Z,58.75
2018-05-10T12:18:02.205Z,58.74
2018-05-10T12:21:07.464Z,58.87
2018-05-10T12:24:12.658Z,58.89
2018-05-10T12:27:17.888Z,58.46
2018-05-10T12:30:24.033Z,58.22
2018-05-10T12:33:29.433Z,58.26
2018-05-10T12:36:34.636Z,58.25
2018-05-10T12:39:39.845Z,58.14
2018-05-10T12:42:45.620Z,58.15
2018-05-10T12:45:51.492Z,58.01
2018-05-10T12:48:57.420Z,57.61
2018-05-10T12:52:02.659Z,56.67
2018-05-10T12:55:07.592Z,56.21
2018-05-10T12:58:13.700Z,55.72
2018-05-10T13:01:19.822Z,54.43
2018-05-10T13:04:25.059Z,54.54
2018-05-10T13:07:30.312Z,54.66
2018-05-10T13:10:36.881Z,54.50
2018-05-10T13:13:43.008Z,54.56
2018-05-10T13:16:49.165Z,54.04
2018-05-10T13:19:56.344Z,53.96
2018-05-10T13:23:03.379Z,54.50
2018-05-10T13:26:09.239Z,54.58
2018-05-10T13:29:14.238Z,55.27
2018-05-10T13:32:20.371Z,56.16
2018-05-10T13:35:27.471Z,56.86
2018-05-10T13:38:32.740Z,57.56
2018-05-10T13:41:38.466Z,58.02
2018-05-10T13:44:44.404Z,58.67
2018-05-10T13:47:50.541Z,58.77
2018-05-10T13:50:56.786Z,59.03
2018-05-10T13:54:02.968Z,59.90
2018-05-10T13:57:10.041Z,60.08
2018-05-10T14:00:16.178Z,60.35
2018-05-10T14:03:21.895Z,60.97
2018-05-10T14:06:28.040Z,61.04
2018-05-10T14:09:34.162Z,61.39
2018-05-10T14:12:40.300Z,61.75
2018-05-10T14:15:46.429Z,61.88
2018-05-10T14:18:52.606Z,61.85
2018-05-10T14:21:58.079Z,62.15
2018-05-10T14:25:03.992Z,63.22
2018-05-10T14:28:09.217Z,63.90
2018-05-10T14:31:16.253Z,63.86
2018-05-10T14:34:22.424Z,64.84
2018-05-10T14:37:27.652Z,65.35
2018-05-10T14:40:33.834Z,64.99
2018-05-10T14:43:39.099Z,66.23
2018-05-10T14:46:46.137Z,66.06
2018-05-10T14:49:52.348Z,66.16
2018-05-10T14:52:58.495Z,67.03
2018-05-10T14:56:03.741Z,66.54
2018-05-10T14:59:08.974Z,66.65
2018-05-10T15:02:15.138Z,66.40
2018-05-10T15:05:20.735Z,67.14
2018-05-10T15:08:26.913Z,67.63
2018-05-10T15:11:34.060Z,67.57
2018-05-10T15:14:39.880Z,67.74
2018-05-10T15:17:46.281Z,67.96
2018-05-10T15:20:51.500Z,68.39
2018-05-10T15:23:57.139Z,68.57
2018-05-10T15:27:02.156Z,68.63
2018-05-10T15:30:08.100Z,68.99
2018-05-10T15:33:13.322Z,68.83
2018-05-10T15:36:19.065Z,69.63
2018-05-10T15:39:24.384Z,69.13
2018-05-10T15:42:30.949Z,70.21
2018-05-10T15:45:36.796Z,70.17
2018-05-10T15:48:42.013Z,70.11
2018-05-10T15:51:47.320Z,71.02
2018-05-10T15:54:53.736Z,70.70
2018-05-10T15:58:00.581Z,72.29
2018-05-10T16:01:06.409Z,71.90
2018-05-10T16:04:13.249Z,72.33
2018-05-10T16:07:19.403Z,72.36
2018-05-10T16:10:25.527Z,72.31
2018-05-10T16:13:30.752Z,71.77
2018-05-10T16:16:36.680Z,71.26
2018-05-10T16:19:42.932Z,71.55
2018-05-10T16:22:48.774Z,71.82
2018-05-10T16:25:54.249Z,71.77
2018-05-10T16:29:00.120Z,71.68
2018-05-10T16:32:06.397Z,71.84
2018-05-10T16:35:11.780Z,72.06
2018-05-10T16:38:16.993Z,71.46
2018-05-10T16:41:22.595Z,71.70
2018-05-10T16:44:28.717Z,71.57
2018-05-10T16:47:34.627Z,72.10
2018-05-10T16:50:39.545Z,72.22
2018-05-10T16:53:44.916Z,72.08
2018-05-10T16:56:51.033Z,71.34
2018-05-10T16:59:58.122Z,71.26
2018-05-10T17:03:04.266Z,71.69
2018-05-10T17:06:10.409Z,71.80
2018-05-10T17:09:16.520Z,72.23
2018-05-10T17:12:22.227Z,71.88
2018-05-10T17:15:27.434Z,71.37
2018-05-10T17:18:32.728Z,71.43
2018-05-10T17:21:37.908Z,71.88
2018-05-10T17:24:42.984Z,71.44
2018-05-10T17:27:47.958Z,71.24
2018-05-10T17:30:54.199Z,71.13
2018-05-10T17:34:00.502Z,71.24
2018-05-10T17:37:06.120Z,71.21
2018-05-10T17:40:11.337Z,71.45
2018-05-10T17:43:16.517Z,71.69
2018-05-10T17:46:22.757Z,72.91
2018-05-10T17:49:28.164Z,72.64
2018-05-10T17:52:33.805Z,72.83
2018-05-10T17:55:40.434Z,72.34
2018-05-10T17:58:46.552Z,73.03
2018-05-10T18:01:51.764Z,72.54
2018-05-10T18:04:57.608Z,73.37
2018-05-10T18:08:03.229Z,72.66
2018-05-10T18:11:09.369Z,72.31
2018-05-10T18:14:15.317Z,73.06
2018-05-10T18:17:20.244Z,73.13
2018-05-10T18:20:25.477Z,73.33
2018-05-10T18:23:31.694Z,73.74
2018-05-10T18:26:37.601Z,73.81
2018-05-10T18:29:43.512Z,73.18
2018-05-10T18:32:49.562Z,72.79
2018-05-10T18:35:55.250Z,73.84
2018-05-10T18:39:00.477Z,73.71
2018-05-10T18:42:05.380Z,74.04
2018-05-10T18:45:10.804Z,73.16
2018-05-10T18:48:15.742Z,73.12
2018-05-10T18:51:21.188Z,73.52
2018-05-10T18:54:26.144Z,72.77
2018-05-10T18:57:30.832Z,72.67
2018-05-10T19:00:36.664Z,73.77
2018-05-10T19:03:42.516Z,73.24
2018-05-10T19:06:49.129Z,73.06
2018-05-10T19:09:54.756Z,73.11
2018-05-10T19:13:00.657Z,73.66
2018-05-10T19:16:05.272Z,72.96
2018-05-10T19:19:10.702Z,72.79
2018-05-10T19:22:16.536Z,72.56
2018-05-10T19:25:21.528Z,72.54
2018-05-10T19:28:28.769Z,72.73
2018-05-10T19:31:33.802Z,72.65
2018-05-10T19:34:38.998Z,72.63
2018-05-10T19:37:44.896Z,72.28
2018-05-10T19:40:49.943Z,72.24
2018-05-10T19:43:55.153Z,72.48
2018-05-10T19:47:00.886Z,72.40
2018-05-10T19:50:06.944Z,72.35
2018-05-10T19:53:12.892Z,72.03
2018-05-10T19:56:18.804Z,72.22
2018-05-10T19:59:24.428Z,72.23
2018-05-10T20:02:29.350Z,72.32
2018-05-10T20:05:34.471Z,72.45
2018-05-10T20:08:40.111Z,72.36
2018-05-10T20:11:45.882Z,72.35
2018-05-10T20:14:50.805Z,72.20
2018-05-10T20:17:56.422Z,72.75
2018-05-10T20:21:02.610Z,72.49
2018-05-10T20:24:07.758Z,72.21
2018-05-10T20:27:15.750Z,72.14
2018-05-10T20:30:21.605Z,72.19
2018-05-10T20:33:27.757Z,72.43
2018-05-10T20:36:33.104Z,72.21
2018-05-10T20:39:39.932Z,72.10
2018-05-10T20:42:45.134Z,72.22
2018-05-10T20:45:50.864Z,72.20
2018-05-10T20:48:56.692Z,72.04
2018-05-10T20:52:02.571Z,71.99
2018-05-10T20:55:08.499Z,71.95
2018-05-10T20:58:14.413Z,71.95
2018-05-10T21:01:19.635Z,71.93
2018-05-10T21:04:25.532Z,72.23
2018-05-10T21:07:31.798Z,71.99
2018-05-10T21:10:37.437Z,72.09
2018-05-10T21:13:42.396Z,72.06
2018-05-10T21:16:47.367Z,72.08
2018-05-10T21:19:52.164Z,72.17
2018-05-10T21:22:59.119Z,72.16
2018-05-10T21:26:04.829Z,72.22
2018-05-10T21:29:10.156Z,72.21
2018-05-10T21:32:15.981Z,72.16
2018-05-10T21:35:21.628Z,72.18
2018-05-10T21:38:26.835Z,71.73
2018-05-10T21:41:31.765Z,72.38
2018-05-10T21:44:36.793Z,72.05
2018-05-10T21:47:42.795Z,72.45
2018-05-10T21:50:48.513Z,72.53
2018-05-10T21:53:54.641Z,72.38
2018-05-10T21:57:01.473Z,72.29
2018-05-10T22:00:07.047Z,72.17
2018-05-10T22:03:12.888Z,72.46
2018-05-10T22:06:19.676Z,72.40
2018-05-10T22:09:26.236Z,72.61
2018-05-10T22:12:32.046Z,72.74
2018-05-10T22:15:37.757Z,72.77
2018-05-10T22:18:42.727Z,72.73
2018-05-10T22:21:48.115Z,72.78
2018-05-10T22:24:53.944Z,72.60
2018-05-10T22:28:00.076Z,72.59
2018-05-10T22:31:06.873Z,72.77
2018-05-10T22:34:12.696Z,72.63
2018-05-10T22:37:17.430Z,72.60
2018-05-10T22:40:23.260Z,72.70
2018-05-10T22:43:29.099Z,72.60
2018-05-10T22:46:34.100Z,72.77
2018-05-10T22:49:39.317Z,72.76
2018-05-10T22:52:45.071Z,72.70
2018-05-10T22:55:50.834Z,72.63
2018-05-10T22:58:56.800Z,72.85
2018-05-10T23:02:02.012Z,72.84
2018-05-10T23:05:09.052Z,72.72
2018-05-10T23:08:14.796Z,72.79
2018-05-10T23:11:20.650Z,72.85
2018-05-10T23:14:27.644Z,72.88
2018-05-10T23:17:33.495Z,73.09
2018-05-10T23:20:38.434Z,73.19
2018-05-10T23:23:43.771Z,72.92
2018-05-10T23:26:48.978Z,72.95
2018-05-10T23:29:54.381Z,73.26
2018-05-10T23:32:59.587Z,72.89
2018-05-10T23:36:04.814Z,73.01
2018-05-10T23:39:10.920Z,73.14
2018-05-10T23:42:17.128Z,73.09
2018-05-10T23:45:24.056Z,73.33
2018-05-10T23:48:30.232Z,73.34
2018-05-10T23:51:37.088Z,73.57
2018-05-10T23:54:43.204Z,73.39
2018-05-10T23:57:49.117Z,73.28
